Time;durP1;ratioP1;P1;durP2;ratioP2;P2;SDS_P1;SDS_P2;PMS_P1;PMS_P2;Temp;Humidity;BMP_temperature;BMP_pressure;BME280_temperature;BME280_humidity;BME280_pressure;Samples;Min_cycle;Max_cycle;Signal;HPM_P1;HPM_P2
2022/01/06 00:00:59;;;;;;;3.38;2.70;;;205.00;2252.80;;;;;;5013757;28;20056;-72
2022/01/06 00:03:26;;;;;;;3.30;2.05;;;205.00;2252.80;;;;;;5013738;28;20014;-71
2022/01/06 00:05:53;;;;;;;3.38;2.15;;;205.00;2252.80;;;;;;5013792;28;20030;-79
2022/01/06 00:08:19;;;;;;;4.28;2.10;;;205.00;2252.80;;;;;;5013788;28;20110;-79
2022/01/06 00:10:47;;;;;;;4.13;1.80;;;204.90;2252.80;;;;;;5014768;28;20112;-77
2022/01/06 00:13:16;;;;;;;4.50;2.17;;;205.00;2252.80;;;;;;5017709;28;20071;-79
2022/01/06 00:23:07;;;;;;;5.03;2.58;;;204.90;2252.80;;;;;;5018108;28;20095;-79
2022/01/06 00:24:05;;;;;;;;;;;204.90;2252.80;;;;;;5018201;28;20387;-80
2022/01/06 00:26:31;;;;;;;5.35;2.00;;;204.80;2252.80;;;;;;5017623;28;19905;-71
2022/01/06 00:28:57;;;;;;;4.00;1.98;;;204.80;2252.80;;;;;;5017725;28;20422;-80
2022/01/06 00:31:22;;;;;;;4.38;2.10;;;204.80;2252.80;;;;;;5017532;28;20022;-72
2022/01/06 00:33:48;;;;;;;2.40;1.58;;;204.80;2252.80;;;;;;5017535;28;20029;-78
2022/01/06 00:36:14;;;;;;;5.80;2.33;;;204.80;2252.80;;;;;;4999846;28;20394;-80
2022/01/06 00:38:40;;;;;;;3.25;1.77;;;204.80;2252.80;;;;;;5017863;28;20097;-72
2022/01/06 00:41:06;;;;;;;4.55;1.92;;;204.80;2252.80;;;;;;5017241;28;20041;-80
2022/01/06 00:43:32;;;;;;;4.57;1.95;;;204.80;2252.80;;;;;;5017220;28;20022;-71
2022/01/06 00:45:58;;;;;;;4.55;2.05;;;204.80;2252.80;;;;;;4999531;28;20076;-81
2022/01/06 00:48:23;;;;;;;4.35;1.70;;;204.80;2252.80;;;;;;5017099;28;20466;-80
2022/01/06 00:50:49;;;;;;;5.47;2.20;;;180.10;2252.80;;;;;;5017048;28;20018;-77
2022/01/06 00:53:15;;;;;;;4.78;2.00;;;180.10;2252.80;;;;;;5017169;28;20382;-71
2022/01/06 00:55:41;;;;;;;5.35;2.03;;;180.10;2252.80;;;;;;5017253;28;20418;-77
2022/01/06 00:58:08;;;;;;;3.45;1.60;;;180.10;2252.80;;;;;;5017005;28;20379;-80
2022/01/06 01:00:39;;;;;;;5.07;2.20;;;180.00;2252.80;;;;;;5017134;28;20415;-81
2022/01/06 01:03:21;;;;;;;6.20;2.00;;;180.10;2252.80;;;;;;5016934;28;20471;-79
2022/01/06 01:05:50;;;;;;;4.18;1.70;;;180.10;2252.80;;;;;;5017379;28;20054;-80
2022/01/06 01:08:16;;;;;;;5.38;1.77;;;180.00;2252.80;;;;;;5016825;28;20033;-80
2022/01/06 01:10:43;;;;;;;5.20;1.83;;;180.00;2252.80;;;;;;5016740;28;20018;-80
2022/01/06 01:13:11;;;;;;;3.17;1.75;;;180.00;2252.80;;;;;;4999054;28;20471;-81
2022/01/06 01:15:52;;;;;;;5.65;2.15;;;180.00;2252.80;;;;;;5016591;28;20025;-80
2022/01/06 01:18:20;;;;;;;6.68;1.98;;;180.00;2252.80;;;;;;4999078;28;20025;-80
2022/01/06 01:20:47;;;;;;;3.08;1.67;;;180.00;2252.80;;;;;;5016403;28;20395;-80
2022/01/06 01:23:14;;;;;;;3.03;1.50;;;180.00;2252.80;;;;;;5016277;28;20037;-81
2022/01/06 01:25:39;;;;;;;2.53;1.48;;;180.10;2252.80;;;;;;5016834;28;20052;-75
2022/01/06 01:28:05;;;;;;;4.03;1.80;;;180.10;2252.80;;;;;;5016955;28;20467;-76
2022/01/06 01:30:40;;;;;;;3.90;1.58;;;180.10;2252.80;;;;;;5016352;28;20028;-72
2022/01/06 01:33:14;;;;;;;4.35;1.92;;;180.10;2227.20;;;;;;5016319;28;20438;-80
2022/01/06 01:35:41;;;;;;;4.80;1.75;;;180.00;2227.20;;;;;;5016275;28;20018;-72
2022/01/06 01:38:07;;;;;;;3.97;1.85;;;180.00;2176.00;;;;;;5016479;28;20068;-71
2022/01/06 01:40:33;;;;;;;6.20;1.83;;;180.00;2150.40;;;;;;4998269;28;20419;-71
2022/01/06 01:42:59;;;;;;;3.95;1.60;;;179.90;2150.40;;;;;;5016099;28;20513;-71
2022/01/06 01:45:29;;;;;;;6.10;2.08;;;179.90;2176.00;;;;;;5015965;28;20017;-71
2022/01/06 01:47:58;;;;;;;4.05;1.80;;;179.90;2176.00;;;;;;5016352;28;20020;-73
2022/01/06 01:50:24;;;;;;;3.70;1.60;;;179.90;2176.00;;;;;;4998312;28;20030;-71
2022/01/06 01:52:56;;;;;;;4.00;1.60;;;179.90;2176.00;;;;;;5015970;28;20498;-72
2022/01/06 01:55:25;;;;;;;4.80;2.08;;;179.90;2201.60;;;;;;5015842;28;20029;-81
2022/01/06 01:57:52;;;;;;;3.55;1.88;;;179.90;2176.00;;;;;;4998238;28;20053;-72
2022/01/06 02:00:20;;;;;;;5.93;1.80;;;179.90;2201.60;;;;;;5015736;28;20076;-72
2022/01/06 02:02:46;;;;;;;5.45;1.92;;;179.80;2201.60;;;;;;5015742;28;20018;-81
2022/01/06 02:05:12;;;;;;;4.70;2.15;;;179.90;2176.00;;;;;;4998070;28;20491;-72
2022/01/06 02:07:39;;;;;;;3.65;1.83;;;179.90;2201.60;;;;;;5015741;28;20014;-72
2022/01/06 02:10:06;;;;;;;4.45;1.75;;;179.80;2201.60;;;;;;5014038;28;20029;-73
2022/01/06 02:12:36;;;;;;;4.82;2.03;;;179.80;2176.00;;;;;;5014880;28;20022;-72
2022/01/06 02:15:04;;;;;;;4.15;1.88;;;179.80;2176.00;;;;;;5015087;28;20026;-80
2022/01/06 02:17:30;;;;;;;4.32;2.30;;;179.80;2201.60;;;;;;5015491;28;20152;-71
2022/01/06 02:19:57;;;;;;;11.48;3.47;;;179.80;2176.00;;;;;;5015119;28;20112;-80
2022/01/06 02:22:24;;;;;;;8.30;3.35;;;179.70;2150.40;;;;;;5015403;28;20022;-79
2022/01/06 02:24:51;;;;;;;5.50;2.33;;;179.60;2201.60;;;;;;5015318;28;20117;-71
2022/01/06 02:27:20;;;;;;;4.97;2.55;;;179.70;2176.00;;;;;;5015308;28;20502;-81
2022/01/06 02:29:51;;;;;;;4.65;2.30;;;179.60;2201.60;;;;;;5015299;28;20030;-79
2022/01/06 02:32:19;;;;;;;8.68;3.60;;;179.70;2227.20;;;;;;5015209;28;20049;-80
2022/01/06 02:34:46;;;;;;;6.20;2.97;;;179.60;2252.80;;;;;;5014412;28;20018;-81
2022/01/06 02:37:14;;;;;;;4.45;2.13;;;179.70;2252.80;;;;;;5015324;28;20040;-72
2022/01/06 02:39:42;;;;;;;5.22;2.08;;;179.70;2252.80;;;;;;5020184;28;20053;-75
2022/01/06 02:42:09;;;;;;;5.70;2.40;;;179.70;2252.80;;;;;;5034806;28;20060;-80
2022/01/06 02:44:38;;;;;;;5.97;2.03;;;179.60;2252.80;;;;;;5034819;28;20053;-78
2022/01/06 02:47:05;;;;;;;4.28;1.95;;;179.70;2252.80;;;;;;5034634;28;20486;-71
2022/01/06 02:49:31;;;;;;;4.03;1.95;;;179.70;2252.80;;;;;;5034530;28;20063;-73
2022/01/06 02:51:58;;;;;;;6.15;2.28;;;179.70;2252.80;;;;;;5016864;28;20363;-79
2022/01/06 02:54:24;;;;;;;4.82;2.17;;;179.70;2252.80;;;;;;5034712;28;20091;-72
2022/01/06 02:56:50;;;;;;;6.85;2.03;;;179.60;2227.20;;;;;;5034557;28;20119;-74
2022/01/06 02:59:16;;;;;;;9.18;3.10;;;179.60;2252.80;;;;;;5034376;28;20025;-72
2022/01/06 03:01:44;;;;;;;6.30;3.42;;;179.50;2227.20;;;;;;5034378;28;20025;-80
2022/01/06 03:04:11;;;;;;;7.75;4.13;;;179.50;2252.80;;;;;;5034392;28;20022;-71
2022/01/06 03:06:38;;;;;;;8.38;3.30;;;179.50;2227.20;;;;;;5034311;28;20105;-71
2022/01/06 03:09:05;;;;;;;4.22;2.08;;;179.50;2227.20;;;;;;5034219;28;20025;-71
2022/01/06 03:11:32;;;;;;;9.07;4.50;;;179.50;2227.20;;;;;;5016475;28;20032;-72
2022/01/06 03:14:00;;;;;;;4.38;1.70;;;179.50;2252.80;;;;;;5034241;28;20497;-75
2022/01/06 03:16:26;;;;;;;6.75;1.95;;;179.40;2227.20;;;;;;5034392;28;20028;-72
2022/01/06 03:18:52;;;;;;;4.15;1.63;;;179.40;2176.00;;;;;;5033997;28;20014;-72
2022/01/06 03:21:18;;;;;;;3.47;1.52;;;179.40;2201.60;;;;;;5034239;28;20036;-81
2022/01/06 03:23:44;;;;;;;3.72;2.00;;;179.40;2227.20;;;;;;5033962;28;20053;-72
2022/01/06 03:26:10;;;;;;;6.32;1.55;;;179.40;2201.60;;;;;;5033970;28;20060;-74
2022/01/06 03:28:36;;;;;;;4.20;1.92;;;179.30;2201.60;;;;;;5033934;28;20026;-80
2022/01/06 03:31:02;;;;;;;3.20;1.63;;;179.30;2201.60;;;;;;5033771;28;20044;-71
2022/01/06 03:33:28;;;;;;;4.40;2.20;;;179.30;2227.20;;;;;;5033881;28;20021;-79
2022/01/06 03:35:54;;;;;;;6.30;2.15;;;179.30;2227.20;;;;;;5016175;28;20090;-72
2022/01/06 03:38:20;;;;;;;5.13;2.75;;;179.40;2201.60;;;;;;5034012;28;20017;-73
2022/01/06 03:40:46;;;;;;;9.40;5.03;;;179.30;2201.60;;;;;;5012499;28;20080;-80
2022/01/06 03:43:12;;;;;;;9.63;4.50;;;179.30;2176.00;;;;;;5013982;28;20148;-79
2022/01/06 03:45:38;;;;;;;7.68;4.10;;;179.30;2201.60;;;;;;5014294;28;20029;-81
2022/01/06 03:48:04;;;;;;;8.05;4.07;;;179.30;2176.00;;;;;;5014327;28;20014;-80
2022/01/06 03:50:31;;;;;;;7.28;3.28;;;179.30;2201.60;;;;;;5014170;28;20025;-72
2022/01/06 03:52:57;;;;;;;9.73;2.72;;;179.30;2227.20;;;;;;5013948;28;20029;-81
2022/01/06 03:55:23;;;;;;;6.60;2.97;;;179.30;2252.80;;;;;;5013825;28;20022;-72
2022/01/06 03:57:49;;;;;;;4.75;2.17;;;179.30;2252.80;;;;;;5014076;28;20026;-79
2022/01/06 04:00:17;;;;;;;7.50;3.33;;;179.20;2252.80;;;;;;5013732;28;20033;-79
2022/01/06 04:02:43;;;;;;;7.35;2.70;;;179.30;2252.80;;;;;;5014022;28;20105;-79
2022/01/06 04:05:10;;;;;;;5.28;2.20;;;179.20;2252.80;;;;;;5013729;28;20390;-79
2022/01/06 04:07:37;;;;;;;4.72;2.50;;;179.20;2252.80;;;;;;5014008;28;20080;-78
2022/01/06 04:10:05;;;;;;;5.60;2.63;;;154.50;2252.80;;;;;;5013709;28;20034;-81
2022/01/06 04:12:34;;;;;;;5.32;2.40;;;179.20;2252.80;;;;;;5013955;28;20029;-72
2022/01/06 04:15:00;;;;;;;8.23;2.80;;;179.20;2252.80;;;;;;5013842;28;20037;-75
2022/01/06 04:17:26;;;;;;;6.85;3.22;;;154.50;2252.80;;;;;;5012495;28;20109;-79
2022/01/06 04:19:52;;;;;;;5.60;2.58;;;154.50;2252.80;;;;;;5013577;28;20471;-79
2022/01/06 04:22:18;;;;;;;5.88;2.65;;;179.20;2252.80;;;;;;5013730;28;20506;-82
2022/01/06 04:24:45;;;;;;;5.72;2.53;;;179.20;2252.80;;;;;;5013553;28;20053;-72
2022/01/06 04:27:11;;;;;;;6.00;2.47;;;154.40;2252.80;;;;;;5012343;28;20364;-72
2022/01/06 04:29:37;;;;;;;6.30;2.83;;;154.50;2252.80;;;;;;5014151;28;20034;-80
2022/01/06 04:32:03;;;;;;;5.88;3.00;;;154.50;2252.80;;;;;;5013384;28;20030;-79
2022/01/06 04:34:30;;;;;;;6.55;2.83;;;154.40;2252.80;;;;;;5013452;28;20546;-78
2022/01/06 04:36:58;;;;;;;7.82;2.72;;;154.40;2252.80;;;;;;5013391;28;20032;-80
2022/01/06 04:39:24;;;;;;;8.48;3.20;;;154.40;2227.20;;;;;;5015083;28;20508;-81
2022/01/06 04:41:50;;;;;;;7.18;3.20;;;154.50;2252.80;;;;;;5033416;28;20104;-74
2022/01/06 04:44:16;;;;;;;7.05;3.00;;;154.40;2227.20;;;;;;5033296;28;20369;-80
2022/01/06 04:46:42;;;;;;;5.85;3.13;;;154.40;2252.80;;;;;;5033121;28;20029;-80
2022/01/06 04:49:08;;;;;;;6.85;3.00;;;154.30;2252.80;;;;;;5033038;28;20079;-72
2022/01/06 04:51:34;;;;;;;5.47;2.85;;;154.40;2252.80;;;;;;5033042;28;20034;-78
2022/01/06 04:54:00;;;;;;;6.80;3.08;;;154.40;2252.80;;;;;;5033088;28;20108;-72
2022/01/06 04:56:26;;;;;;;4.82;2.60;;;154.30;2252.80;;;;;;5033399;28;20452;-80
2022/01/06 04:58:52;;;;;;;6.00;2.22;;;154.20;2252.80;;;;;;5036590;28;20033;-78
2022/01/06 05:01:18;;;;;;;6.88;2.10;;;154.20;2252.80;;;;;;5036628;28;20029;-78
2022/01/06 05:03:44;;;;;;;12.90;3.15;;;154.20;2252.80;;;;;;5036597;28;20022;-79
2022/01/06 05:06:10;;;;;;;5.70;2.58;;;154.30;2252.80;;;;;;5036531;28;20040;-75
2022/01/06 05:08:36;;;;;;;7.20;2.33;;;154.40;2252.80;;;;;;5036489;28;20497;-72
2022/01/06 05:11:01;;;;;;;6.72;1.77;;;154.30;2252.80;;;;;;5018847;28;20030;-72
2022/01/06 05:13:27;;;;;;;5.40;1.75;;;154.40;2252.80;;;;;;5036382;28;20022;-71
2022/01/06 05:15:53;;;;;;;10.65;4.45;;;154.30;2252.80;;;;;;5036306;28;20025;-79
2022/01/06 05:18:19;;;;;;;6.90;3.20;;;154.20;2252.80;;;;;;5036312;28;20025;-72
2022/01/06 05:20:45;;;;;;;7.05;2.92;;;154.20;2252.80;;;;;;5036466;28;20038;-79
2022/01/06 05:23:12;;;;;;;9.35;2.70;;;154.20;2252.80;;;;;;5036225;28;20017;-72
2022/01/06 05:25:38;;;;;;;30.40;9.63;;;154.20;2252.80;;;;;;5036250;28;20022;-80
2022/01/06 05:28:04;;;;;;;35.85;13.32;;;154.30;2252.80;;;;;;5036168;28;20540;-80
2022/01/06 05:30:30;;;;;;;6.32;2.72;;;154.20;2252.80;;;;;;5036107;28;20018;-72
2022/01/06 05:32:56;;;;;;;7.47;2.15;;;154.20;2252.80;;;;;;5036086;28;20083;-79
2022/01/06 05:35:22;;;;;;;9.02;4.53;;;154.20;2252.80;;;;;;5036137;28;20057;-78
2022/01/06 05:37:48;;;;;;;6.88;3.88;;;154.10;2252.80;;;;;;5035998;28;20467;-79
2022/01/06 05:40:14;;;;;;;5.50;2.45;;;154.20;2252.80;;;;;;5014885;28;20057;-77
2022/01/06 05:42:41;;;;;;;6.03;2.58;;;154.10;2252.80;;;;;;5016370;28;20037;-72
2022/01/06 05:45:08;;;;;;;7.57;2.78;;;154.10;2252.80;;;;;;5016078;28;20163;-79
2022/01/06 05:47:35;;;;;;;7.07;2.55;;;154.10;2252.80;;;;;;5016633;28;20482;-72
2022/01/06 05:50:02;;;;;;;7.18;2.78;;;154.10;2252.80;;;;;;5016006;28;20033;-72
2022/01/06 05:52:28;;;;;;;8.80;3.78;;;154.20;2252.80;;;;;;5015960;28;20055;-79
2022/01/06 05:54:53;;;;;;;16.55;6.10;;;154.20;2252.80;;;;;;5016027;28;20030;-79
2022/01/06 05:57:19;;;;;;;8.68;3.72;;;154.20;2252.80;;;;;;5016397;28;20038;-72
2022/01/06 05:59:45;;;;;;;9.05;5.75;;;154.10;2252.80;;;;;;5015974;28;20034;-72
2022/01/06 06:02:11;;;;;;;9.48;4.32;;;154.00;2252.80;;;;;;5024346;28;20036;-71
2022/01/06 06:04:37;;;;;;;14.07;6.10;;;154.10;2252.80;;;;;;5025008;28;20037;-72
2022/01/06 06:07:03;;;;;;;9.00;3.80;;;154.10;2252.80;;;;;;5026052;28;20075;-78
2022/01/06 06:09:29;;;;;;;19.15;8.15;;;154.10;2252.80;;;;;;5022822;28;20060;-72
2022/01/06 06:11:55;;;;;;;46.60;22.10;;;154.10;2252.80;;;;;;5032283;28;20033;-71
2022/01/06 06:14:21;;;;;;;67.57;33.40;;;154.00;2252.80;;;;;;5035278;28;20528;-71
2022/01/06 06:16:47;;;;;;;30.40;17.95;;;154.00;2252.80;;;;;;5035166;28;20025;-78
2022/01/06 06:19:12;;;;;;;9.80;5.45;;;154.00;2252.80;;;;;;5035129;28;20033;-72
2022/01/06 06:21:38;;;;;;;11.10;3.50;;;154.00;2252.80;;;;;;5035317;28;20025;-71
2022/01/06 06:24:05;;;;;;;8.70;4.15;;;154.00;2252.80;;;;;;5035044;28;20481;-71
2022/01/06 06:26:31;;;;;;;13.40;6.22;;;154.00;2252.80;;;;;;5035071;28;20022;-72
2022/01/06 06:28:57;;;;;;;30.02;14.70;;;154.00;2252.80;;;;;;5035001;28;20021;-72
2022/01/06 06:31:23;;;;;;;13.15;6.97;;;154.00;2252.80;;;;;;5034952;28;20103;-72
2022/01/06 06:33:50;;;;;;;13.50;5.80;;;154.00;2252.80;;;;;;5017157;28;20045;-78
2022/01/06 06:36:16;;;;;;;10.35;3.33;;;154.00;2252.80;;;;;;5034758;28;20082;-72
2022/01/06 06:38:42;;;;;;;24.10;8.55;;;154.00;2252.80;;;;;;5034765;28;20458;-78
2022/01/06 06:41:08;;;;;;;18.33;8.55;;;154.00;2252.80;;;;;;5034526;28;20053;-72
2022/01/06 06:43:35;;;;;;;21.30;9.30;;;154.00;2252.80;;;;;;5034830;28;20118;-72
2022/01/06 06:46:00;;;;;;;17.75;7.15;;;154.00;2252.80;;;;;;5034581;28;20482;-72
2022/01/06 06:48:26;;;;;;;10.70;5.20;;;154.00;2252.80;;;;;;5034697;28;20034;-71
2022/01/06 06:50:52;;;;;;;14.35;6.57;;;154.00;2252.80;;;;;;5017013;28;20022;-78
2022/01/06 06:53:18;;;;;;;14.70;6.10;;;154.00;2252.80;;;;;;5016736;28;20029;-78
2022/01/06 06:55:45;;;;;;;11.02;5.40;;;153.90;2252.80;;;;;;5034640;28;20105;-78
2022/01/06 06:58:11;;;;;;;15.73;6.78;;;153.90;2252.80;;;;;;5034457;28;20025;-72
2022/01/06 07:00:37;;;;;;;11.27;6.03;;;153.90;2252.80;;;;;;5034169;28;20044;-78
2022/01/06 07:03:03;;;;;;;10.98;5.07;;;153.90;2252.80;;;;;;5016638;28;20100;-71
2022/01/06 07:05:29;;;;;;;12.35;6.68;;;153.90;2252.80;;;;;;5034420;28;20047;-72
2022/01/06 07:07:55;;;;;;;13.50;6.07;;;154.00;2252.80;;;;;;5034456;28;20083;-72
2022/01/06 07:10:21;;;;;;;8.05;3.80;;;154.00;2252.80;;;;;;5034473;28;20029;-78
2022/01/06 07:12:47;;;;;;;9.73;4.07;;;154.00;2252.80;;;;;;5034217;28;20459;-72
2022/01/06 07:15:15;;;;;;;9.50;4.20;;;154.00;2252.80;;;;;;5034102;28;20025;-76
2022/01/06 07:17:41;;;;;;;9.63;5.05;;;154.20;2252.80;;;;;;5034070;28;20040;-74
2022/01/06 07:20:08;;;;;;;15.02;6.13;;;153.90;2252.80;;;;;;5016092;28;20033;-77
2022/01/06 07:22:34;;;;;;;13.65;6.95;;;154.00;2252.80;;;;;;5034092;28;20026;-72
2022/01/06 07:25:03;;;;;;;13.90;6.50;;;153.90;2252.80;;;;;;5033929;28;20052;-75
2022/01/06 07:27:29;;;;;;;11.73;5.38;;;154.00;2252.80;;;;;;5034020;28;20100;-73
2022/01/06 07:29:55;;;;;;;14.00;7.78;;;154.00;2252.80;;;;;;5033877;28;20108;-72
2022/01/06 07:32:21;;;;;;;16.85;7.53;;;154.00;2252.80;;;;;;5034402;28;20030;-72
2022/01/06 07:34:47;;;;;;;17.88;7.55;;;153.90;2252.80;;;;;;5033916;28;20075;-72
2022/01/06 07:37:13;;;;;;;17.48;6.45;;;153.90;2252.80;;;;;;5033916;28;20053;-75
2022/01/06 07:39:40;;;;;;;10.93;4.95;;;153.90;2252.80;;;;;;5034073;28;20081;-77
2022/01/06 07:42:06;;;;;;;12.27;4.85;;;153.90;2252.80;;;;;;5033843;28;20037;-72
2022/01/06 07:44:32;;;;;;;8.52;4.20;;;154.00;2252.80;;;;;;5033918;28;20060;-72
2022/01/06 07:46:59;;;;;;;13.35;5.10;;;153.90;2252.80;;;;;;5034008;28;20056;-75
2022/01/06 07:49:25;;;;;;;12.05;4.97;;;154.00;2252.80;;;;;;5034101;28;20036;-72
2022/01/06 07:51:53;;;;;;;9.30;5.40;;;154.00;2252.80;;;;;;5016330;28;20022;-72
2022/01/06 07:54:19;;;;;;;13.00;6.65;;;154.00;2252.80;;;;;;5034067;28;20057;-76
2022/01/06 07:56:45;;;;;;;12.75;6.80;;;154.00;2252.80;;;;;;5016136;28;20028;-72
2022/01/06 07:59:11;;;;;;;35.80;16.15;;;153.90;2252.80;;;;;;5034406;28;20099;-72
2022/01/06 08:01:38;;;;;;;18.65;10.30;;;154.00;2252.80;;;;;;5033892;28;20036;-72
2022/01/06 08:04:04;;;;;;;20.40;6.85;;;154.00;2252.80;;;;;;5033678;28;20025;-71
2022/01/06 08:06:30;;;;;;;13.30;6.43;;;154.00;2252.80;;;;;;5034494;28;20033;-72
2022/01/06 08:08:55;;;;;;;14.10;6.55;;;154.00;2252.80;;;;;;5035286;28;20025;-72
2022/01/06 08:11:21;;;;;;;17.20;6.07;;;154.00;2252.80;;;;;;5034617;28;20032;-72
2022/01/06 08:13:47;;;;;;;13.27;7.07;;;154.00;2252.80;;;;;;5034939;28;20027;-73
2022/01/06 08:16:13;;;;;;;14.90;7.63;;;153.90;2252.80;;;;;;5034688;28;20518;-76
2022/01/06 08:18:39;;;;;;;18.67;9.45;;;154.00;2252.80;;;;;;5034601;28;20021;-72
2022/01/06 08:21:06;;;;;;;20.20;8.00;;;153.90;2252.80;;;;;;5034597;28;20044;-76
2022/01/06 08:23:32;;;;;;;19.10;9.05;;;154.00;2252.80;;;;;;5034743;28;20025;-72
2022/01/06 08:25:58;;;;;;;19.58;11.13;;;154.00;2252.80;;;;;;5034405;28;20036;-76
2022/01/06 08:28:24;;;;;;;27.10;13.18;;;154.10;2252.80;;;;;;5033728;28;20063;-72
2022/01/06 08:30:50;;;;;;;26.50;14.38;;;154.20;2252.80;;;;;;5034386;28;20406;-72
2022/01/06 08:33:16;;;;;;;30.30;11.32;;;154.10;2252.80;;;;;;5020431;28;20021;-77
2022/01/06 08:35:42;;;;;;;27.27;15.13;;;154.20;2252.80;;;;;;5038215;28;20024;-72
2022/01/06 08:38:08;;;;;;;33.22;16.05;;;154.30;2252.80;;;;;;5038156;28;20505;-76
2022/01/06 08:40:34;;;;;;;31.08;16.05;;;154.20;2252.80;;;;;;5037930;28;20045;-72
2022/01/06 08:43:00;;;;;;;27.98;14.90;;;154.20;2252.80;;;;;;5038252;28;20021;-75
2022/01/06 08:45:26;;;;;;;23.20;15.45;;;154.10;2252.80;;;;;;5035512;28;20022;-77
2022/01/06 08:47:52;;;;;;;50.40;32.22;;;154.00;2252.80;;;;;;5027266;28;20104;-75
2022/01/06 08:50:17;;;;;;;22.52;12.88;;;154.10;2252.80;;;;;;5004112;28;20570;-74
2022/01/06 08:52:50;;;;;;;37.50;21.95;;;154.30;2252.80;;;;;;5001203;28;20022;-80
2022/01/06 08:55:18;;;;;;;22.75;13.05;;;154.40;2252.80;;;;;;5017267;28;20026;-76
2022/01/06 08:57:44;;;;;;;22.40;10.45;;;154.40;2252.80;;;;;;5017029;28;20049;-75
2022/01/06 09:00:11;;;;;;;19.05;11.13;;;154.30;2252.80;;;;;;5017935;28;20038;-74
2022/01/06 09:02:40;;;;;;;27.23;14.48;;;154.30;2252.80;;;;;;5001482;28;20026;-78
2022/01/06 09:05:08;;;;;;;394.98;281.20;;;154.30;2252.80;;;;;;5004004;28;20105;-74
2022/01/06 09:07:34;;;;;;;41.22;25.10;;;154.40;2252.80;;;;;;4999195;28;20041;-76
2022/01/06 09:10:00;;;;;;;29.58;15.50;;;154.50;2252.80;;;;;;5028008;28;20037;-74
2022/01/06 09:12:27;;;;;;;25.23;13.48;;;154.50;2252.80;;;;;;5036252;28;20488;-74
2022/01/06 09:14:53;;;;;;;23.30;13.60;;;179.20;2252.80;;;;;;5038658;28;20021;-79
2022/01/06 09:17:19;;;;;;;22.85;13.13;;;154.30;2252.80;;;;;;5028676;28;20393;-75
2022/01/06 09:19:50;;;;;;;20.23;10.90;;;154.30;2252.80;;;;;;5042325;28;20021;-78
2022/01/06 09:22:16;;;;;;;21.27;12.27;;;154.20;2252.80;;;;;;5041023;28;20026;-75
2022/01/06 09:24:42;;;;;;;17.10;10.35;;;154.00;2252.80;;;;;;5020414;28;20083;-75
2022/01/06 09:27:09;;;;;;;21.65;14.02;;;154.00;2252.80;;;;;;5042144;28;20025;-76
2022/01/06 09:29:35;;;;;;;19.83;11.23;;;153.90;2252.80;;;;;;5041750;28;20060;-75
2022/01/06 09:32:01;;;;;;;19.15;11.35;;;153.90;2252.80;;;;;;5038579;28;20025;-75
2022/01/06 09:34:27;;;;;;;20.98;11.45;;;153.90;2252.80;;;;;;5037686;28;20082;-77
2022/01/06 09:36:53;;;;;;;21.48;10.07;;;154.00;2252.80;;;;;;5037992;28;20095;-75
2022/01/06 09:39:20;;;;;;;21.00;11.02;;;154.00;2252.80;;;;;;5011302;28;20509;-75
2022/01/06 09:41:47;;;;;;;15.48;7.90;;;154.10;2252.80;;;;;;5030750;28;20068;-75
2022/01/06 09:44:14;;;;;;;14.15;7.60;;;154.00;2252.80;;;;;;5035233;28;20029;-74
2022/01/06 09:46:40;;;;;;;14.90;8.30;;;154.00;2252.80;;;;;;5018751;28;20121;-74
2022/01/06 09:49:06;;;;;;;16.95;8.77;;;154.00;2252.80;;;;;;5038586;28;20088;-75
2022/01/06 09:51:32;;;;;;;18.85;10.27;;;154.00;2252.80;;;;;;5040363;28;20026;-75
2022/01/06 09:54:00;;;;;;;18.90;11.10;;;154.10;2252.80;;;;;;5045687;28;20100;-75
2022/01/06 09:56:29;;;;;;;18.00;11.30;;;154.00;2252.80;;;;;;5040894;28;20022;-79
2022/01/06 09:58:56;;;;;;;19.98;13.23;;;154.00;2252.80;;;;;;5028281;28;20379;-74
2022/01/06 10:01:30;;;;;;;19.52;10.35;;;154.00;2252.80;;;;;;5041386;28;20021;-77
2022/01/06 10:03:56;;;;;;;15.88;8.60;;;154.00;2252.80;;;;;;5036177;28;20482;-75
2022/01/06 10:06:27;;;;;;;17.23;9.82;;;153.90;2252.80;;;;;;5036057;28;20072;-75
2022/01/06 10:09:04;;;;;;;17.50;11.15;;;154.00;2252.80;;;;;;5034716;28;20043;-74
2022/01/06 10:11:35;;;;;;;18.15;10.23;;;154.10;2252.80;;;;;;5037227;28;20061;-74
2022/01/06 10:14:10;;;;;;;18.48;10.38;;;154.20;2252.80;;;;;;5048258;28;20044;-75
2022/01/06 10:16:45;;;;;;;22.10;10.70;;;154.30;2252.80;;;;;;5039189;28;20028;-75
2022/01/06 10:19:14;;;;;;;19.33;9.55;;;154.30;2252.80;;;;;;5019229;28;20028;-74
2022/01/06 10:21:46;;;;;;;16.52;9.63;;;154.20;2252.80;;;;;;5036549;28;20426;-75
2022/01/06 10:24:19;;;;;;;12.95;7.88;;;154.20;2252.80;;;;;;5036602;28;20360;-74
2022/01/06 10:27:15;;;;;;;19.35;9.55;;;154.10;2252.80;;;;;;5040787;28;20025;-75
2022/01/06 10:29:46;;;;;;;18.90;9.88;;;154.30;2252.80;;;;;;5035835;28;20121;-75
2022/01/06 10:32:21;;;;;;;20.45;9.10;;;154.30;2252.80;;;;;;5034223;28;20079;-74
2022/01/06 10:34:53;;;;;;;13.70;8.43;;;154.30;2252.80;;;;;;5035922;28;20122;-75
2022/01/06 10:37:24;;;;;;;13.38;8.23;;;154.20;2252.80;;;;;;5034398;28;20474;-75
2022/01/06 10:39:58;;;;;;;24.17;12.20;;;154.20;2252.80;;;;;;5016474;28;20560;-75
2022/01/06 10:42:26;;;;;;;19.40;10.38;;;154.20;2252.80;;;;;;5034690;28;20033;-75
2022/01/06 10:44:56;;;;;;;21.70;11.35;;;154.30;2252.80;;;;;;5034644;28;20021;-74
2022/01/06 10:47:56;;;;;;;19.17;10.55;;;154.30;2252.80;;;;;;5034553;28;20355;-75
2022/01/06 10:50:38;;;;;;;20.85;9.55;;;154.40;2252.80;;;;;;5034685;28;20048;-75
2022/01/06 10:53:10;;;;;;;21.10;10.80;;;154.40;2252.80;;;;;;5021835;28;20429;-73
2022/01/06 10:55:43;;;;;;;16.40;8.75;;;154.40;2252.80;;;;;;5021173;28;20529;-73
2022/01/06 10:58:19;;;;;;;16.00;9.05;;;154.40;2252.80;;;;;;5017899;28;20075;-74
2022/01/06 11:00:49;;;;;;;10.30;6.72;;;154.40;2252.80;;;;;;5006013;28;20042;-74
2022/01/06 11:03:16;;;;;;;19.85;7.93;;;154.50;2252.80;;;;;;5015497;28;20022;-74
2022/01/06 11:05:45;;;;;;;17.33;7.35;;;154.50;2252.80;;;;;;5014591;28;20025;-74
2022/01/06 11:08:13;;;;;;;11.07;6.03;;;154.50;2252.80;;;;;;4997451;28;20076;-73
2022/01/06 11:10:47;;;;;;;14.55;7.03;;;154.40;2252.80;;;;;;5014223;28;20026;-74
2022/01/06 11:13:14;;;;;;;;;;;154.40;2252.80;;;;;;5014604;28;20018;-74
2022/01/06 11:15:41;;;;;;;12.63;6.70;;;154.30;2252.80;;;;;;5013864;28;19959;-74
2022/01/06 11:18:07;;;;;;;15.57;7.45;;;154.20;2252.80;;;;;;5014127;28;20026;-72
2022/01/06 11:20:34;;;;;;;11.95;6.72;;;154.20;2252.80;;;;;;5013892;28;20503;-73
2022/01/06 11:23:01;;;;;;;14.20;7.60;;;154.00;2252.80;;;;;;5014012;28;20025;-74
2022/01/06 11:25:36;;;;;;;18.58;7.72;;;153.90;2252.80;;;;;;5013848;28;20084;-74
2022/01/06 11:28:10;;;;;;;18.25;8.43;;;153.90;2252.80;;;;;;5014394;28;20056;-74
2022/01/06 11:30:49;;;;;;;14.70;8.63;;;153.90;2252.80;;;;;;5015487;28;20041;-74
2022/01/06 11:33:15;;;;;;;12.43;7.32;;;153.80;2252.80;;;;;;4997187;28;20459;-75
2022/01/06 11:35:56;;;;;;;21.35;10.48;;;153.80;2252.80;;;;;;4997367;28;20067;-75
2022/01/06 11:38:26;;;;;;;31.42;15.00;;;153.70;2252.80;;;;;;4996809;28;20022;-74
2022/01/06 11:41:12;;;;;;;33.95;17.08;;;153.80;2252.80;;;;;;5018896;28;20045;-74
2022/01/06 11:43:43;;;;;;;23.27;11.88;;;153.80;2252.80;;;;;;5017325;28;20026;-75
2022/01/06 11:46:11;;;;;;;25.23;12.32;;;153.70;2252.80;;;;;;4999662;28;20014;-75
2022/01/06 11:48:58;;;;;;;25.67;14.65;;;153.60;2252.80;;;;;;5014039;28;20014;-75
2022/01/06 11:51:32;;;;;;;28.15;17.42;;;153.60;2252.80;;;;;;5015800;28;20022;-74
2022/01/06 11:54:11;;;;;;;22.88;14.65;;;153.70;2252.80;;;;;;5019453;28;20471;-74
2022/01/06 11:56:48;;;;;;;26.00;14.32;;;153.60;2252.80;;;;;;5023330;28;20010;-76
2022/01/06 11:59:15;;;;;;;25.85;12.98;;;153.70;2252.80;;;;;;4988739;28;20038;-74
2022/01/06 12:01:47;;;;;;;25.25;14.85;;;153.70;2252.80;;;;;;5014526;28;20513;-74
2022/01/06 12:04:23;;;;;;;27.07;13.77;;;153.60;2252.80;;;;;;5013860;28;20013;-74
2022/01/06 12:06:50;;;;;;;35.75;19.23;;;153.70;2252.80;;;;;;5014314;28;20290;-74
2022/01/06 12:09:21;;;;;;;28.00;15.00;;;153.70;2252.80;;;;;;5013708;28;20520;-74
2022/01/06 12:12:07;;;;;;;20.33;12.75;;;153.70;2252.80;;;;;;5018657;28;20030;-76
2022/01/06 12:14:34;;;;;;;22.02;12.13;;;153.80;2252.80;;;;;;4999215;28;20045;-74
2022/01/06 12:17:09;;;;;;;20.42;11.48;;;153.90;2252.80;;;;;;5015765;28;20030;-74
2022/01/06 12:19:36;;;;;;;18.88;10.55;;;153.90;2252.80;;;;;;5014349;28;20034;-75